Terminal Aerodrome Forecast
Issued by NWS Sterling, VA

Home | Current Version | Previous Version | Text Only | Print | Product List | Glossary On
Versions: 1 2 3 4 5 6 7 8 9 10 11 12 13 14 15
000
FTUS41 KLWX 160500
TAFCHO
TAF
KCHO 160524Z 1606/1706 VRB03KT P6SM BKN015 OVC025
     FM161100 00000KT P6SM BKN035
     FM161400 VRB03KT P6SM SCT060=

USA.gov is the U.S. government's official web portal to all federal, state and local government web resources and services.